EZS45GJ LFKB-LSGG
Flight info
| Callsign | EZS45GJ |
|---|---|
| Flight time | 0h 54m |
| Altitude | 18000 |
| Route | MEGER Z911 OLETI M858 UNITA L50 NEDED/N0426F320 DCT TOP DCT TUPUP DCT AOSTA/N0358F220 L615 BANKO |
| Aircraft | A320/M-SDE2E3FGHIJ1RWXYZ/LB1 |
Departure
| Time | 2026-05-07 11:37 |
|---|---|
| Airport | Bastia-Poretta International airport (LFKB) |
Arrival
| Time | 2026-05-07 12:31 |
|---|---|
| Airport | Geneva International Airport (LSGG) |
| Time | Latitude | Longitude | Altitude | Speed | Heading |
|---|---|---|---|---|---|
| 2026-05-07 11:20 | 42.54728 | 9.48205 | 36 ft | 0 kts | 253° |
| 2026-05-07 11:30 | 42.54735 | 9.48236 | 34 ft | 4 kts | 252° |
| 2026-05-07 11:30 | 42.54742 | 9.48271 | 35 ft | 4 kts | 265° |
| 2026-05-07 11:30 | 42.54740 | 9.48305 | 35 ft | 4 kts | 301° |
| 2026-05-07 11:31 | 42.54728 | 9.48321 | 31 ft | 0 kts | 343° |
| 2026-05-07 11:33 | 42.54739 | 9.48317 | 34 ft | 4 kts | 343° |
| 2026-05-07 11:33 | 42.54783 | 9.48298 | 33 ft | 9 kts | 343° |
| 2026-05-07 11:33 | 42.54860 | 9.48266 | 34 ft | 13 kts | 343° |
| 2026-05-07 11:33 | 42.54939 | 9.48235 | 35 ft | 11 kts | 352° |
| 2026-05-07 11:34 | 42.55009 | 9.48226 | 35 ft | 9 kts | 343° |
| 2026-05-07 11:34 | 42.55073 | 9.48199 | 35 ft | 12 kts | 342° |
| 2026-05-07 11:34 | 42.55179 | 9.48154 | 35 ft | 20 kts | 343° |
| 2026-05-07 11:34 | 42.55334 | 9.48090 | 35 ft | 26 kts | 342° |
| 2026-05-07 11:35 | 42.55511 | 9.48016 | 33 ft | 27 kts | 344° |
| 2026-05-07 11:35 | 42.55696 | 9.47938 | 30 ft | 28 kts | 342° |
| 2026-05-07 11:35 | 42.55870 | 9.47865 | 28 ft | 16 kts | 345° |
| 2026-05-07 11:35 | 42.55945 | 9.47924 | 25 ft | 14 kts | 73° |
| 2026-05-07 11:36 | 42.55966 | 9.48050 | 24 ft | 11 kts | 94° |
| 2026-05-07 11:36 | 42.55931 | 9.48095 | 27 ft | 4 kts | 163° |
| 2026-05-07 11:36 | 42.55930 | 9.48095 | 26 ft | 1 kts | 163° |
| 2026-05-07 11:36 | 42.55795 | 9.48152 | 27 ft | 54 kts | 162° |
| 2026-05-07 11:37 | 42.55219 | 9.48393 | 37 ft | 117 kts | 163° |
| 2026-05-07 11:37 | 42.54293 | 9.48775 | 114 ft | 157 kts | 162° |
| 2026-05-07 11:37 | 42.53266 | 9.49251 | 812 ft | 156 kts | 150° |
| 2026-05-07 11:37 | 42.52299 | 9.49995 | 1319 ft | 168 kts | 148° |
| 2026-05-07 11:38 | 42.51255 | 9.50895 | 1683 ft | 189 kts | 145° |
| 2026-05-07 11:38 | 42.50083 | 9.51917 | 2016 ft | 211 kts | 146° |
| 2026-05-07 11:38 | 42.48795 | 9.53028 | 2469 ft | 230 kts | 147° |
| 2026-05-07 11:38 | 42.47400 | 9.54217 | 2997 ft | 248 kts | 147° |
| 2026-05-07 11:39 | 42.45891 | 9.55488 | 3635 ft | 261 kts | 148° |
| 2026-05-07 11:39 | 42.44326 | 9.56794 | 4472 ft | 267 kts | 148° |
| 2026-05-07 11:39 | 42.42918 | 9.58439 | 5270 ft | 273 kts | 122° |
| 2026-05-07 11:39 | 42.42357 | 9.60876 | 6067 ft | 277 kts | 88° |
| 2026-05-07 11:40 | 42.42894 | 9.63360 | 6848 ft | 280 kts | 54° |
| 2026-05-07 11:40 | 42.44360 | 9.65059 | 7580 ft | 282 kts | 21° |
| 2026-05-07 11:40 | 42.46290 | 9.65408 | 8338 ft | 284 kts | 348° |
| 2026-05-07 11:40 | 42.48051 | 9.64289 | 9100 ft | 283 kts | 315° |
| 2026-05-07 11:41 | 42.49288 | 9.62264 | 9894 ft | 284 kts | 301° |
| 2026-05-07 11:41 | 42.50335 | 9.59969 | 10544 ft | 293 kts | 299° |
| 2026-05-07 11:41 | 42.51444 | 9.57487 | 10792 ft | 316 kts | 298° |
| 2026-05-07 11:41 | 42.52583 | 9.54920 | 11308 ft | 326 kts | 299° |
| 2026-05-07 11:42 | 42.53892 | 9.52376 | 12017 ft | 332 kts | 306° |
| 2026-05-07 11:42 | 42.55393 | 9.49967 | 12776 ft | 336 kts | 309° |
| 2026-05-07 11:42 | 42.57064 | 9.47724 | 13512 ft | 342 kts | 319° |
| 2026-05-07 11:42 | 42.59102 | 9.45988 | 13930 ft | 349 kts | 333° |
| 2026-05-07 11:43 | 42.61410 | 9.44944 | 14018 ft | 351 kts | 341° |
| 2026-05-07 11:43 | 42.63797 | 9.44038 | 14164 ft | 365 kts | 342° |
| 2026-05-07 11:43 | 42.66317 | 9.43111 | 14294 ft | 384 kts | 343° |
| 2026-05-07 11:43 | 42.68937 | 9.42165 | 14635 ft | 394 kts | 343° |
| 2026-05-07 11:44 | 42.71633 | 9.41200 | 14839 ft | 408 kts | 343° |
| 2026-05-07 11:44 | 42.74425 | 9.40202 | 15030 ft | 420 kts | 343° |
| 2026-05-07 11:44 | 42.77271 | 9.39177 | 15434 ft | 425 kts | 342° |
| 2026-05-07 11:44 | 42.80139 | 9.38139 | 15912 ft | 428 kts | 342° |
| 2026-05-07 11:45 | 42.83030 | 9.37094 | 16389 ft | 431 kts | 342° |
| 2026-05-07 11:45 | 42.85938 | 9.36036 | 16884 ft | 434 kts | 342° |
| 2026-05-07 11:45 | 42.88866 | 9.34965 | 17374 ft | 437 kts | 342° |
| 2026-05-07 11:45 | 42.91815 | 9.33889 | 17835 ft | 440 kts | 342° |
| 2026-05-07 11:46 | 42.94775 | 9.32809 | 17996 ft | 441 kts | 342° |
| 2026-05-07 11:46 | 42.97746 | 9.31725 | 18027 ft | 441 kts | 342° |
| 2026-05-07 11:46 | 43.00717 | 9.30641 | 18028 ft | 445 kts | 342° |
| 2026-05-07 11:46 | 43.03713 | 9.29546 | 18024 ft | 446 kts | 342° |
| 2026-05-07 11:47 | 43.06719 | 9.28442 | 18032 ft | 447 kts | 342° |
| 2026-05-07 11:47 | 43.09678 | 9.27352 | 18025 ft | 446 kts | 342° |
| 2026-05-07 11:47 | 43.12709 | 9.26234 | 18026 ft | 446 kts | 342° |
| 2026-05-07 11:47 | 43.15667 | 9.25146 | 18026 ft | 446 kts | 342° |
| 2026-05-07 11:48 | 43.18666 | 9.24044 | 18024 ft | 446 kts | 342° |
| 2026-05-07 11:48 | 43.21666 | 9.22941 | 18024 ft | 446 kts | 342° |
| 2026-05-07 11:48 | 43.24661 | 9.21840 | 18025 ft | 446 kts | 342° |
| 2026-05-07 11:48 | 43.27659 | 9.20737 | 18044 ft | 446 kts | 342° |
| 2026-05-07 11:49 | 43.30659 | 9.19631 | 18048 ft | 446 kts | 342° |
| 2026-05-07 11:49 | 43.33653 | 9.18522 | 18048 ft | 445 kts | 342° |
| 2026-05-07 11:49 | 43.36638 | 9.17415 | 18046 ft | 445 kts | 342° |
| 2026-05-07 11:49 | 43.39627 | 9.16306 | 18041 ft | 445 kts | 342° |
| 2026-05-07 11:50 | 43.42609 | 9.15200 | 18041 ft | 444 kts | 342° |
| 2026-05-07 11:50 | 43.45597 | 9.14094 | 18038 ft | 444 kts | 342° |
| 2026-05-07 11:50 | 43.48582 | 9.12986 | 18049 ft | 444 kts | 342° |
| 2026-05-07 11:50 | 43.51564 | 9.11880 | 18045 ft | 443 kts | 342° |
| 2026-05-07 11:51 | 43.54540 | 9.10775 | 18043 ft | 443 kts | 342° |
| 2026-05-07 11:51 | 43.57514 | 9.09667 | 18038 ft | 443 kts | 342° |
| 2026-05-07 11:51 | 43.60486 | 9.08556 | 18035 ft | 442 kts | 342° |
| 2026-05-07 11:51 | 43.63457 | 9.07440 | 18030 ft | 442 kts | 342° |
| 2026-05-07 11:52 | 43.66426 | 9.06322 | 18027 ft | 442 kts | 342° |
| 2026-05-07 11:52 | 43.69394 | 9.05208 | 18035 ft | 442 kts | 342° |
| 2026-05-07 11:52 | 43.72360 | 9.04097 | 18029 ft | 442 kts | 342° |
| 2026-05-07 11:52 | 43.75326 | 9.02983 | 18028 ft | 441 kts | 342° |
| 2026-05-07 11:53 | 43.78283 | 9.01872 | 18029 ft | 441 kts | 342° |
| 2026-05-07 11:53 | 43.81302 | 9.01086 | 18024 ft | 444 kts | 354° |
| 2026-05-07 11:53 | 43.84408 | 9.01240 | 18023 ft | 447 kts | 2° |
| 2026-05-07 11:53 | 43.87502 | 9.01605 | 18030 ft | 447 kts | 2° |
| 2026-05-07 11:54 | 43.90604 | 9.01944 | 18027 ft | 446 kts | 359° |
| 2026-05-07 11:54 | 43.93661 | 9.01486 | 18026 ft | 440 kts | 343° |
| 2026-05-07 11:54 | 43.96462 | 8.99904 | 18024 ft | 434 kts | 327° |
| 2026-05-07 11:54 | 43.98873 | 8.97407 | 18021 ft | 431 kts | 318° |
| 2026-05-07 11:55 | 44.01168 | 8.94741 | 18017 ft | 431 kts | 318° |
| 2026-05-07 11:55 | 44.03467 | 8.92058 | 18012 ft | 431 kts | 318° |
| 2026-05-07 11:55 | 44.05762 | 8.89376 | 18011 ft | 431 kts | 318° |
| 2026-05-07 11:55 | 44.08059 | 8.86695 | 18015 ft | 431 kts | 318° |
| 2026-05-07 11:56 | 44.10329 | 8.84045 | 18014 ft | 431 kts | 318° |
| 2026-05-07 11:56 | 44.12625 | 8.81359 | 18016 ft | 431 kts | 318° |
| 2026-05-07 11:56 | 44.14922 | 8.78671 | 18016 ft | 431 kts | 318° |
| 2026-05-07 11:56 | 44.17214 | 8.75980 | 18015 ft | 431 kts | 318° |
| 2026-05-07 11:57 | 44.19501 | 8.73286 | 18008 ft | 431 kts | 318° |
| 2026-05-07 11:57 | 44.21793 | 8.70584 | 18007 ft | 431 kts | 318° |
| 2026-05-07 11:57 | 44.24084 | 8.67888 | 18002 ft | 432 kts | 318° |
| 2026-05-07 11:57 | 44.26385 | 8.65187 | 18000 ft | 432 kts | 318° |
| 2026-05-07 11:58 | 44.28684 | 8.62489 | 17997 ft | 432 kts | 318° |
| 2026-05-07 11:58 | 44.30982 | 8.59785 | 18031 ft | 432 kts | 318° |
| 2026-05-07 11:58 | 44.33270 | 8.57084 | 18032 ft | 432 kts | 318° |
| 2026-05-07 11:58 | 44.35562 | 8.54368 | 18032 ft | 431 kts | 318° |
| 2026-05-07 11:59 | 44.37851 | 8.51656 | 18030 ft | 431 kts | 318° |
| 2026-05-07 11:59 | 44.40138 | 8.48950 | 18027 ft | 431 kts | 318° |
| 2026-05-07 11:59 | 44.42428 | 8.46240 | 18019 ft | 431 kts | 318° |
| 2026-05-07 11:59 | 44.44716 | 8.43527 | 18010 ft | 431 kts | 318° |
| 2026-05-07 12:00 | 44.47001 | 8.40815 | 18007 ft | 431 kts | 318° |
| 2026-05-07 12:00 | 44.48516 | 8.39015 | 18006 ft | 431 kts | 318° |
| 2026-05-07 12:00 | 44.50799 | 8.36300 | 18011 ft | 431 kts | 318° |
| 2026-05-07 12:00 | 44.53090 | 8.33575 | 18006 ft | 431 kts | 318° |
| 2026-05-07 12:01 | 44.55375 | 8.30855 | 17996 ft | 431 kts | 318° |
| 2026-05-07 12:01 | 44.57661 | 8.28128 | 17988 ft | 432 kts | 318° |
| 2026-05-07 12:01 | 44.59947 | 8.25394 | 17993 ft | 432 kts | 318° |
| 2026-05-07 12:01 | 44.62235 | 8.22656 | 17985 ft | 433 kts | 318° |
| 2026-05-07 12:02 | 44.64528 | 8.19909 | 17985 ft | 433 kts | 317° |
| 2026-05-07 12:02 | 44.66816 | 8.17159 | 17989 ft | 433 kts | 317° |
| 2026-05-07 12:02 | 44.69104 | 8.14406 | 17990 ft | 433 kts | 317° |
| 2026-05-07 12:02 | 44.71387 | 8.11658 | 18004 ft | 433 kts | 317° |
| 2026-05-07 12:03 | 44.73681 | 8.08903 | 18013 ft | 432 kts | 317° |
| 2026-05-07 12:03 | 44.75963 | 8.06163 | 18015 ft | 432 kts | 317° |
| 2026-05-07 12:03 | 44.78252 | 8.03418 | 18013 ft | 431 kts | 317° |
| 2026-05-07 12:03 | 44.80535 | 8.00680 | 18015 ft | 431 kts | 317° |
| 2026-05-07 12:04 | 44.82784 | 7.97973 | 18008 ft | 431 kts | 317° |
| 2026-05-07 12:04 | 44.85090 | 7.95191 | 18003 ft | 431 kts | 317° |
| 2026-05-07 12:04 | 44.87331 | 7.92484 | 17997 ft | 431 kts | 317° |
| 2026-05-07 12:04 | 44.89611 | 7.89725 | 17996 ft | 431 kts | 317° |
| 2026-05-07 12:05 | 44.91885 | 7.86975 | 18004 ft | 431 kts | 318° |
| 2026-05-07 12:05 | 44.94348 | 7.84553 | 18006 ft | 433 kts | 325° |
| 2026-05-07 12:05 | 44.96899 | 7.82285 | 18007 ft | 433 kts | 326° |
| 2026-05-07 12:05 | 44.99452 | 7.80028 | 18009 ft | 433 kts | 326° |
| 2026-05-07 12:06 | 45.02007 | 7.77770 | 18007 ft | 433 kts | 326° |
| 2026-05-07 12:06 | 45.04558 | 7.75505 | 18009 ft | 433 kts | 326° |
| 2026-05-07 12:06 | 45.07106 | 7.73234 | 18009 ft | 433 kts | 325° |
| 2026-05-07 12:06 | 45.09654 | 7.70960 | 18008 ft | 433 kts | 325° |
| 2026-05-07 12:07 | 45.12199 | 7.68687 | 18035 ft | 433 kts | 325° |
| 2026-05-07 12:07 | 45.14743 | 7.66414 | 18018 ft | 433 kts | 325° |
| 2026-05-07 12:07 | 45.17290 | 7.64130 | 18013 ft | 433 kts | 325° |
| 2026-05-07 12:07 | 45.19836 | 7.61846 | 18011 ft | 433 kts | 325° |
| 2026-05-07 12:08 | 45.22452 | 7.59745 | 18008 ft | 435 kts | 334° |
| 2026-05-07 12:08 | 45.25334 | 7.58364 | 18011 ft | 437 kts | 340° |
| 2026-05-07 12:08 | 45.28208 | 7.57113 | 18008 ft | 438 kts | 340° |
| 2026-05-07 12:08 | 45.31119 | 7.55856 | 18001 ft | 438 kts | 340° |
| 2026-05-07 12:09 | 45.34035 | 7.54600 | 18011 ft | 438 kts | 341° |
| 2026-05-07 12:09 | 45.36951 | 7.53343 | 17999 ft | 438 kts | 340° |
| 2026-05-07 12:09 | 45.39869 | 7.52082 | 18001 ft | 438 kts | 340° |
| 2026-05-07 12:09 | 45.42787 | 7.50814 | 18004 ft | 438 kts | 340° |
| 2026-05-07 12:10 | 45.45699 | 7.49539 | 17995 ft | 438 kts | 341° |
| 2026-05-07 12:10 | 45.48614 | 7.48260 | 17993 ft | 437 kts | 340° |
| 2026-05-07 12:10 | 45.51522 | 7.46984 | 17993 ft | 438 kts | 340° |
| 2026-05-07 12:10 | 45.54437 | 7.45702 | 18011 ft | 439 kts | 341° |
| 2026-05-07 12:11 | 45.57353 | 7.44418 | 18009 ft | 438 kts | 340° |
| 2026-05-07 12:11 | 45.60269 | 7.43132 | 18012 ft | 439 kts | 341° |
| 2026-05-07 12:11 | 45.63184 | 7.41847 | 18013 ft | 439 kts | 341° |
| 2026-05-07 12:11 | 45.66100 | 7.40564 | 18016 ft | 439 kts | 341° |
| 2026-05-07 12:12 | 45.69019 | 7.39277 | 18010 ft | 438 kts | 341° |
| 2026-05-07 12:12 | 45.71934 | 7.37991 | 17972 ft | 438 kts | 340° |
| 2026-05-07 12:12 | 45.74833 | 7.36659 | 17985 ft | 437 kts | 336° |
| 2026-05-07 12:12 | 45.77419 | 7.34452 | 17980 ft | 432 kts | 317° |
| 2026-05-07 12:13 | 45.79290 | 7.31137 | 17977 ft | 429 kts | 297° |
| 2026-05-07 12:13 | 45.80258 | 7.27118 | 17971 ft | 427 kts | 279° |
| 2026-05-07 12:13 | 45.80640 | 7.22907 | 17970 ft | 427 kts | 276° |
| 2026-05-07 12:13 | 45.80979 | 7.18678 | 17965 ft | 427 kts | 276° |
| 2026-05-07 12:14 | 45.81304 | 7.14446 | 17966 ft | 427 kts | 276° |
| 2026-05-07 12:14 | 45.81629 | 7.10208 | 17966 ft | 427 kts | 276° |
| 2026-05-07 12:14 | 45.82210 | 7.06043 | 17973 ft | 429 kts | 288° |
| 2026-05-07 12:14 | 45.83542 | 7.02234 | 17980 ft | 431 kts | 302° |
| 2026-05-07 12:15 | 45.85237 | 6.98678 | 17990 ft | 431 kts | 303° |
| 2026-05-07 12:15 | 45.86934 | 6.95136 | 17991 ft | 431 kts | 303° |
| 2026-05-07 12:15 | 45.88603 | 6.91653 | 17992 ft | 431 kts | 303° |
| 2026-05-07 12:15 | 45.90326 | 6.88044 | 17998 ft | 431 kts | 303° |
| 2026-05-07 12:16 | 45.92019 | 6.84489 | 17995 ft | 431 kts | 303° |
| 2026-05-07 12:16 | 45.93705 | 6.80930 | 17998 ft | 431 kts | 303° |
| 2026-05-07 12:16 | 45.95389 | 6.77368 | 17999 ft | 431 kts | 303° |
| 2026-05-07 12:16 | 45.97072 | 6.73796 | 18003 ft | 431 kts | 302° |
| 2026-05-07 12:17 | 45.98744 | 6.70210 | 18001 ft | 432 kts | 302° |
| 2026-05-07 12:17 | 46.00382 | 6.66667 | 17998 ft | 432 kts | 302° |
| 2026-05-07 12:17 | 46.02042 | 6.63062 | 17999 ft | 432 kts | 302° |
| 2026-05-07 12:17 | 46.03722 | 6.59410 | 17997 ft | 432 kts | 302° |
| 2026-05-07 12:18 | 46.05361 | 6.55848 | 18006 ft | 432 kts | 302° |
| 2026-05-07 12:18 | 46.07031 | 6.52252 | 18009 ft | 433 kts | 302° |
| 2026-05-07 12:18 | 46.08723 | 6.48658 | 18000 ft | 433 kts | 303° |
| 2026-05-07 12:18 | 46.10412 | 6.45100 | 17730 ft | 422 kts | 303° |
| 2026-05-07 12:19 | 46.12036 | 6.41693 | 17592 ft | 404 kts | 303° |
| 2026-05-07 12:19 | 46.13565 | 6.38481 | 17426 ft | 373 kts | 303° |
| 2026-05-07 12:19 | 46.14978 | 6.35502 | 17237 ft | 348 kts | 302° |
| 2026-05-07 12:19 | 46.16314 | 6.32674 | 16634 ft | 337 kts | 302° |
| 2026-05-07 12:20 | 46.17565 | 6.29851 | 15903 ft | 330 kts | 293° |
| 2026-05-07 12:20 | 46.18129 | 6.26715 | 15200 ft | 321 kts | 270° |
| 2026-05-07 12:20 | 46.17794 | 6.23588 | 14677 ft | 310 kts | 248° |
| 2026-05-07 12:20 | 46.16731 | 6.20976 | 14258 ft | 300 kts | 229° |
| 2026-05-07 12:21 | 46.15311 | 6.18804 | 13649 ft | 296 kts | 226° |
| 2026-05-07 12:21 | 46.13893 | 6.16697 | 13175 ft | 288 kts | 226° |
| 2026-05-07 12:21 | 46.12515 | 6.14669 | 12792 ft | 278 kts | 226° |
| 2026-05-07 12:21 | 46.11159 | 6.12680 | 12425 ft | 278 kts | 226° |
| 2026-05-07 12:22 | 46.09805 | 6.10691 | 12059 ft | 279 kts | 226° |
| 2026-05-07 12:22 | 46.08441 | 6.08694 | 11698 ft | 279 kts | 225° |
| 2026-05-07 12:22 | 46.07073 | 6.06719 | 11341 ft | 279 kts | 225° |
| 2026-05-07 12:22 | 46.05699 | 6.04745 | 10977 ft | 279 kts | 225° |
| 2026-05-07 12:23 | 46.04331 | 6.02774 | 10605 ft | 279 kts | 225° |
| 2026-05-07 12:23 | 46.02960 | 6.00796 | 10237 ft | 279 kts | 225° |
| 2026-05-07 12:23 | 46.01583 | 5.98818 | 9851 ft | 279 kts | 224° |
| 2026-05-07 12:23 | 46.00213 | 5.96850 | 9448 ft | 278 kts | 224° |
| 2026-05-07 12:24 | 45.98868 | 5.94921 | 9202 ft | 272 kts | 224° |
| 2026-05-07 12:24 | 45.97549 | 5.92999 | 9078 ft | 262 kts | 228° |
| 2026-05-07 12:24 | 45.96731 | 5.90732 | 8925 ft | 255 kts | 258° |
| 2026-05-07 12:24 | 45.96856 | 5.88249 | 8523 ft | 259 kts | 292° |
| 2026-05-07 12:25 | 45.97857 | 5.86117 | 8189 ft | 257 kts | 313° |
| 2026-05-07 12:25 | 45.99233 | 5.84509 | 7626 ft | 256 kts | 329° |
| 2026-05-07 12:25 | 46.00883 | 5.83526 | 6971 ft | 259 kts | 347° |
| 2026-05-07 12:25 | 46.02640 | 5.83302 | 6657 ft | 248 kts | 4° |
| 2026-05-07 12:26 | 46.04306 | 5.83767 | 6418 ft | 243 kts | 19° |
| 2026-05-07 12:26 | 46.05809 | 5.84852 | 6126 ft | 241 kts | 35° |
| 2026-05-07 12:26 | 46.07054 | 5.86444 | 5816 ft | 239 kts | 45° |
| 2026-05-07 12:26 | 46.08225 | 5.88148 | 5476 ft | 239 kts | 44° |
| 2026-05-07 12:27 | 46.09380 | 5.89828 | 5172 ft | 233 kts | 45° |
| 2026-05-07 12:27 | 46.10504 | 5.91463 | 4878 ft | 226 kts | 45° |
| 2026-05-07 12:27 | 46.11591 | 5.93046 | 4569 ft | 219 kts | 43° |
| 2026-05-07 12:27 | 46.12644 | 5.94580 | 4296 ft | 210 kts | 44° |
| 2026-05-07 12:28 | 46.13651 | 5.96048 | 4008 ft | 203 kts | 44° |
| 2026-05-07 12:28 | 46.14631 | 5.97477 | 3738 ft | 198 kts | 43° |
| 2026-05-07 12:28 | 46.15596 | 5.98884 | 3478 ft | 196 kts | 44° |
| 2026-05-07 12:28 | 46.16546 | 6.00271 | 3222 ft | 191 kts | 45° |
| 2026-05-07 12:29 | 46.17461 | 6.01607 | 2967 ft | 184 kts | 45° |
| 2026-05-07 12:29 | 46.18348 | 6.02904 | 2739 ft | 178 kts | 44° |
| 2026-05-07 12:29 | 46.19195 | 6.04142 | 2496 ft | 166 kts | 44° |
| 2026-05-07 12:29 | 46.19977 | 6.05286 | 2243 ft | 155 kts | 45° |
| 2026-05-07 12:30 | 46.20705 | 6.06359 | 2011 ft | 145 kts | 46° |
| 2026-05-07 12:30 | 46.21400 | 6.07393 | 1806 ft | 142 kts | 45° |
| 2026-05-07 12:30 | 46.22100 | 6.08393 | 1627 ft | 141 kts | 46° |
| 2026-05-07 12:30 | 46.22780 | 6.09398 | 1440 ft | 139 kts | 46° |
| 2026-05-07 12:31 | 46.23409 | 6.10319 | 1395 ft | 109 kts | 46° |
| 2026-05-07 12:31 | 46.23821 | 6.10920 | 1390 ft | 57 kts | 45° |
| 2026-05-07 12:31 | 46.24049 | 6.11254 | 1397 ft | 44 kts | 45° |
| 2026-05-07 12:31 | 46.24241 | 6.11541 | 1387 ft | 32 kts | 50° |
| 2026-05-07 12:32 | 46.24309 | 6.11716 | 1386 ft | 13 kts | 68° |
| 2026-05-07 12:32 | 46.24336 | 6.11846 | 1386 ft | 14 kts | 73° |
| 2026-05-07 12:32 | 46.24328 | 6.11938 | 1387 ft | 7 kts | 140° |
| 2026-05-07 12:32 | 46.24291 | 6.11935 | 1389 ft | 6 kts | 207° |
| 2026-05-07 12:33 | 46.24176 | 6.11771 | 1388 ft | 17 kts | 225° |
| 2026-05-07 12:33 | 46.24095 | 6.11652 | 1388 ft | 16 kts | 225° |
| 2026-05-07 12:33 | 46.24020 | 6.11542 | 1388 ft | 15 kts | 225° |
| 2026-05-07 12:34 | 46.23950 | 6.11439 | 1389 ft | 14 kts | 225° |
| 2026-05-07 12:34 | 46.23887 | 6.11346 | 1387 ft | 12 kts | 225° |
| 2026-05-07 12:34 | 46.23832 | 6.11265 | 1388 ft | 11 kts | 225° |
| 2026-05-07 12:34 | 46.23772 | 6.11177 | 1389 ft | 16 kts | 225° |
| 2026-05-07 12:35 | 46.23693 | 6.11069 | 1386 ft | 10 kts | 206° |
| 2026-05-07 12:35 | 46.23642 | 6.11106 | 1388 ft | 8 kts | 135° |
| 2026-05-07 12:35 | 46.23607 | 6.11154 | 1389 ft | 6 kts | 136° |
| 2026-05-07 12:35 | 46.23573 | 6.11161 | 1389 ft | 4 kts | 201° |
| 2026-05-07 12:36 | 46.23549 | 6.11129 | 1388 ft | 7 kts | 225° |
| 2026-05-07 12:36 | 46.23513 | 6.11076 | 1388 ft | 7 kts | 226° |
| 2026-05-07 12:36 | 46.23480 | 6.11052 | 1387 ft | 5 kts | 171° |
| 2026-05-07 12:36 | 46.23453 | 6.11085 | 1389 ft | 5 kts | 134° |
| 2026-05-07 12:37 | 46.23433 | 6.11114 | 1390 ft | 3 kts | 136° |
| 2026-05-07 12:37 | 46.23425 | 6.11125 | 1387 ft | 0 kts | 136° |